Hauptseite
METAR-TAF:

METAR-TAF

Flughäfen :

Flughafen Mailand-Linate

Mailand, Italien

Breite: 45-26N, Länge: 009-17E, Höhe: 107 m

Beobachtung

Neuester Wetterbericht von vor 45 Minuten, um 00:20 UTC
Wind 5 kt aus Ost, variierte zwischen Nordost und Ost
Temperatur 13°C
Luftfeuchtigkeit 88%
Luftdruck 1007 hPa
Sichtweite 10 km oder mehr
Durchbrochene Bewölkung in der Höhe von 4000 ft
Leichtregen

METAR: LIML 230020Z 08005KT 040V100 9999 -RA BKN040 13/11 Q1007 NOSIG

Zeit: 03:05 (01:05 UTC)

Prognose

Neuester Wetterbericht von vor 2 Stunden und 5 Minuten, um 23:00 UTC
Gültige Prognose vom 23 um 00 UTC bis 23 um 24 UTC
Wind 7 kt aus Ost
Sichtweite: 6000 m
Durchbrochene Bewölkung in der Höhe von 2000 ft
Durchbrochene Bewölkung in der Höhe von 5000 ft
Regen

TAF: LIML 222300Z 2300/2324 10007KT 6000 RA BKN020 BKN050

Wetterbeobachtungen und Prognosen von mehr als 4000 Flughäfen (METAR und TAF Bericht).

Die verfügbaren Stationen werden durch gelbe und rote Markierungen auf der Karte dargestellt.

Führen Sie die Maus auf sie, um den Namen der Station zu sehen.

Darauf klicken, um die Beobachtung von Wetterbeobachtungen und Prognosen zu sehen.

Um die Karte zu ändern : klicken Sie auf den grünen Tasten mit einem schwarzen Kreuz Zum Vergrößern, auf den grünen Button mit einem Gedankenstrich zu verkleinern, oder auf die grünen Pfeile für benachbarte Karten.


METAR-TAF: